Pearcy, Arkansas
Current Conditions -  °F | °C
As of 4:53 AM on Friday 19 Dec 2014 (Local Time) from KHOT Reporting Station
Haze Haze  
Wind Chill: 36°   Ceiling: 300
Heat Index: 40°   Visibility: 5mi
Dew Point: 39°   Wind: 6mph
Humidity: 97%   Direction: 50°NE
Pressure: 30.2"   Gusts: NA
Location:  34.43°N, 93.29°W
Report Text: KHOT 191053Z AUTO 05005KT 5SM BR OVC003 04/04 A3020 RMK AO2 SLP227 T00440039
Loading
Personal Weather Stations






























Interactive Weather Map New forecast layout! Learn more

10-Day Weather Forecast

Advertisements
Track Severe Weather on mobile